createdAt,value
2017-07-12T00:00:07.417Z,1011.3
2017-07-12T00:00:33.016Z,1011.28
2017-07-12T00:00:58.597Z,1011.32
2017-07-12T00:01:24.224Z,1011.31
2017-07-12T00:01:49.795Z,1011.24
2017-07-12T00:02:15.584Z,1011.24
2017-07-12T00:02:41.152Z,1011.25
2017-07-12T00:03:06.706Z,1011.3
2017-07-12T00:03:32.264Z,1011.25
2017-07-12T00:03:57.850Z,1011.27
2017-07-12T00:04:23.404Z,1011.25
2017-07-12T00:04:48.981Z,1011.25
2017-07-12T00:05:14.552Z,1011.23
2017-07-12T00:05:40.120Z,1011.22
2017-07-12T00:06:05.723Z,1011.19
2017-07-12T00:06:31.294Z,1011.23
2017-07-12T00:06:56.882Z,1011.2
2017-07-12T00:07:22.461Z,1011.23
2017-07-12T00:07:48.046Z,1011.19
2017-07-12T00:08:13.623Z,1011.23
2017-07-12T00:08:39.244Z,1011.23
2017-07-12T00:09:04.875Z,1011.24
2017-07-12T00:09:30.439Z,1011.26
2017-07-12T00:09:55.991Z,1011.21
2017-07-12T00:10:21.562Z,1011.25
2017-07-12T00:10:47.125Z,1011.23
2017-07-12T00:11:12.703Z,1011.22
2017-07-12T00:11:38.345Z,1011.24
2017-07-12T00:12:03.911Z,1011.22
2017-07-12T00:12:29.475Z,1011.22
2017-07-12T00:12:55.124Z,1011.17
2017-07-12T00:13:20.712Z,1011.21
2017-07-12T00:13:46.258Z,1011.19
2017-07-12T00:14:11.817Z,1011.15
2017-07-12T00:14:37.391Z,1011.19
2017-07-12T00:15:02.952Z,1011.15
2017-07-12T00:15:28.515Z,1011.13
2017-07-12T00:15:54.100Z,1011.15
2017-07-12T00:16:19.670Z,1011.15
2017-07-12T00:16:45.245Z,1011.1
2017-07-12T00:17:10.854Z,1011.09
2017-07-12T00:17:36.416Z,1011.12
2017-07-12T00:18:01.976Z,1011.08
2017-07-12T00:18:27.649Z,1011.09
2017-07-12T00:18:53.227Z,1011.12
2017-07-12T00:19:18.789Z,1011.08
2017-07-12T00:19:44.387Z,1011.06
2017-07-12T00:20:09.946Z,1011.1
2017-07-12T00:20:35.492Z,1011.04
2017-07-12T00:21:01.061Z,1011.06
2017-07-12T00:21:26.608Z,1011.02
2017-07-12T00:21:52.173Z,1011.06
2017-07-12T00:22:17.778Z,1011.03
2017-07-12T00:22:43.338Z,1011.01
2017-07-12T00:23:08.903Z,1011.03
2017-07-12T00:23:34.470Z,1011.01
2017-07-12T00:24:00.047Z,1011.03
2017-07-12T00:24:25.597Z,1011
2017-07-12T00:24:51.160Z,1011.02
2017-07-12T00:25:16.716Z,1011.03
2017-07-12T00:25:42.360Z,1011.04
2017-07-12T00:26:08.023Z,1011.04
2017-07-12T00:26:33.598Z,1011.01
2017-07-12T00:26:59.161Z,1011.01
2017-07-12T00:27:24.735Z,1011.02
2017-07-12T00:27:50.310Z,1011.01
2017-07-12T00:28:15.876Z,1011.05
2017-07-12T00:28:41.464Z,1011.04
2017-07-12T00:29:07.119Z,1011
2017-07-12T00:29:32.714Z,1011.02
2017-07-12T00:29:58.280Z,1011.02
2017-07-12T00:30:23.842Z,1011.01
2017-07-12T00:30:49.388Z,1011
2017-07-12T00:31:14.971Z,1011.01
2017-07-12T00:31:40.522Z,1011
2017-07-12T00:32:06.199Z,1010.99
2017-07-12T00:32:31.748Z,1010.98
2017-07-12T00:32:57.314Z,1010.97
2017-07-12T00:33:22.878Z,1010.96
2017-07-12T00:33:48.439Z,1010.96
2017-07-12T00:34:14.021Z,1010.97
2017-07-12T00:34:39.594Z,1010.96
2017-07-12T00:35:05.169Z,1010.97
2017-07-12T00:35:30.812Z,1010.93
2017-07-12T00:35:56.368Z,1010.97
2017-07-12T00:36:21.920Z,1010.93
2017-07-12T00:36:47.486Z,1010.93
2017-07-12T00:37:13.082Z,1010.88
2017-07-12T00:37:38.643Z,1010.91
2017-07-12T00:38:04.230Z,1010.87
2017-07-12T00:38:29.814Z,1010.9
2017-07-12T00:38:55.371Z,1010.9
2017-07-12T00:39:20.954Z,1010.9
2017-07-12T00:39:46.508Z,1010.88
2017-07-12T00:40:12.077Z,1010.89
2017-07-12T00:40:37.632Z,1010.83
2017-07-12T00:41:03.302Z,1010.82
2017-07-12T00:41:28.873Z,1010.86
2017-07-12T00:41:54.451Z,1010.86
2017-07-12T00:42:20.043Z,1010.82
2017-07-12T00:42:45.596Z,1010.84
2017-07-12T00:43:11.175Z,1010.81
2017-07-12T00:43:36.726Z,1010.78
2017-07-12T00:44:02.289Z,1010.86
2017-07-12T00:44:27.874Z,1010.81
2017-07-12T00:44:53.466Z,1010.77
2017-07-12T00:45:19.046Z,1010.78
2017-07-12T00:45:44.635Z,1010.77
2017-07-12T00:46:10.204Z,1010.75
2017-07-12T00:46:35.781Z,1010.74
2017-07-12T00:47:01.345Z,1010.79
2017-07-12T00:47:26.901Z,1010.73
2017-07-12T00:47:52.522Z,1010.78
2017-07-12T00:48:18.088Z,1010.74
2017-07-12T00:48:43.715Z,1010.76
2017-07-12T00:49:09.290Z,1010.74
2017-07-12T00:49:34.854Z,1010.74
2017-07-12T00:50:00.408Z,1010.72
2017-07-12T00:50:25.973Z,1010.75
2017-07-12T00:50:51.569Z,1010.72
2017-07-12T00:51:17.112Z,1010.69
2017-07-12T00:51:42.683Z,1010.74
2017-07-12T00:52:08.250Z,1010.7
2017-07-12T00:52:33.910Z,1010.73
2017-07-12T00:52:59.484Z,1010.71
2017-07-12T00:53:25.045Z,1010.75
2017-07-12T00:53:50.610Z,1010.77
2017-07-12T00:54:16.189Z,1010.75
2017-07-12T00:54:41.750Z,1010.7
2017-07-12T00:55:07.321Z,1010.73
2017-07-12T00:55:32.891Z,1010.7
2017-07-12T00:55:58.442Z,1010.72
2017-07-12T00:56:24.003Z,1010.72
2017-07-12T00:56:49.579Z,1010.68
2017-07-12T00:57:15.139Z,1010.7
2017-07-12T00:57:40.755Z,1010.7
2017-07-12T00:58:06.319Z,1010.67
2017-07-12T00:58:31.925Z,1010.67
2017-07-12T00:58:57.473Z,1010.63
2017-07-12T00:59:23.052Z,1010.6
2017-07-12T00:59:48.613Z,1010.62
2017-07-12T01:00:14.192Z,1010.6
2017-07-12T01:00:39.767Z,1010.63
2017-07-12T01:01:05.340Z,1010.62
2017-07-12T01:01:30.926Z,1010.59
2017-07-12T01:01:56.609Z,1010.56
2017-07-12T01:02:22.186Z,1010.58
2017-07-12T01:02:47.764Z,1010.55
2017-07-12T01:03:13.343Z,1010.58
2017-07-12T01:03:38.906Z,1010.56
2017-07-12T01:04:04.468Z,1010.56
2017-07-12T01:04:30.074Z,1010.56
2017-07-12T01:04:55.715Z,1010.59
2017-07-12T01:05:21.271Z,1010.59
2017-07-12T01:05:46.855Z,1010.56
2017-07-12T01:06:12.402Z,1010.54
2017-07-12T01:06:37.976Z,1010.54
2017-07-12T01:07:03.533Z,1010.53
2017-07-12T01:07:29.164Z,1010.55
2017-07-12T01:07:54.715Z,1010.53
2017-07-12T01:08:20.286Z,1010.53
2017-07-12T01:08:45.854Z,1010.53
2017-07-12T01:09:11.445Z,1010.54
2017-07-12T01:09:37.027Z,1010.52
2017-07-12T01:10:02.629Z,1010.51
2017-07-12T01:10:28.235Z,1010.54
2017-07-12T01:10:53.806Z,1010.52
2017-07-12T01:11:19.375Z,1010.48
2017-07-12T01:11:44.943Z,1010.48
2017-07-12T01:12:10.504Z,1010.48
2017-07-12T01:12:36.051Z,1010.45
2017-07-12T01:13:01.627Z,1010.42
2017-07-12T01:13:27.211Z,1010.44
2017-07-12T01:13:52.805Z,1010.39
2017-07-12T01:14:18.371Z,1010.38
2017-07-12T01:14:43.932Z,1010.41
2017-07-12T01:15:09.537Z,1010.41
2017-07-12T01:15:35.100Z,1010.37
2017-07-12T01:16:00.675Z,1010.35
2017-07-12T01:16:26.332Z,1010.38
2017-07-12T01:16:51.880Z,1010.34
2017-07-12T01:17:17.437Z,1010.34
2017-07-12T01:17:42.991Z,1010.34
2017-07-12T01:18:08.553Z,1010.31
2017-07-12T01:18:34.115Z,1010.28
2017-07-12T01:18:59.695Z,1010.34
2017-07-12T01:19:25.245Z,1010.31
2017-07-12T01:19:50.807Z,1010.3
2017-07-12T01:20:16.433Z,1010.31
2017-07-12T01:20:41.998Z,1010.28
2017-07-12T01:21:07.552Z,1010.27
2017-07-12T01:21:33.103Z,1010.27
2017-07-12T01:21:58.657Z,1010.3
2017-07-12T01:22:24.207Z,1010.32
2017-07-12T01:22:49.781Z,1010.29
2017-07-12T01:23:15.334Z,1010.26
2017-07-12T01:23:40.947Z,1010.25
2017-07-12T01:24:06.625Z,1010.31
2017-07-12T01:24:32.214Z,1010.32
2017-07-12T01:24:57.787Z,1010.31
2017-07-12T01:25:23.428Z,1010.27
2017-07-12T01:25:48.991Z,1010.31
2017-07-12T01:26:14.573Z,1010.3
2017-07-12T01:26:40.130Z,1010.3
2017-07-12T01:27:05.696Z,1010.31
2017-07-12T01:27:31.248Z,1010.28
2017-07-12T01:27:56.834Z,1010.28
2017-07-12T01:28:22.392Z,1010.27
2017-07-12T01:28:47.961Z,1010.31
2017-07-12T01:29:13.520Z,1010.27
2017-07-12T01:29:39.074Z,1010.3
2017-07-12T01:30:04.635Z,1010.3
2017-07-12T01:30:30.193Z,1010.31
2017-07-12T01:30:55.739Z,1010.31
2017-07-12T01:31:21.316Z,1010.29
2017-07-12T01:31:46.877Z,1010.34
2017-07-12T01:32:12.434Z,1010.32
2017-07-12T01:32:38.006Z,1010.32
2017-07-12T01:33:03.555Z,1010.31
2017-07-12T01:33:29.121Z,1010.33
2017-07-12T01:33:54.685Z,1010.37
2017-07-12T01:34:20.244Z,1010.34
2017-07-12T01:34:45.852Z,1010.38
2017-07-12T01:35:11.406Z,1010.39
2017-07-12T01:35:36.979Z,1010.37
2017-07-12T01:36:02.539Z,1010.41
2017-07-12T01:36:28.084Z,1010.44
2017-07-12T01:36:53.761Z,1010.48
2017-07-12T01:37:19.386Z,1010.48
2017-07-12T01:37:44.948Z,1010.49
2017-07-12T01:38:10.502Z,1010.54
2017-07-12T01:38:36.071Z,1010.59
2017-07-12T01:39:01.659Z,1010.53
2017-07-12T01:39:27.223Z,1010.57
2017-07-12T01:39:52.778Z,1010.56
2017-07-12T01:40:18.444Z,1010.55
2017-07-12T01:40:44.011Z,1010.55
2017-07-12T01:41:09.562Z,1010.55
2017-07-12T01:41:35.186Z,1010.54
2017-07-12T01:42:00.739Z,1010.57
2017-07-12T01:42:26.322Z,1010.57
2017-07-12T01:42:52.012Z,1010.6
2017-07-12T01:43:17.584Z,1010.6
2017-07-12T01:43:43.151Z,1010.57
2017-07-12T01:44:08.722Z,1010.58
2017-07-12T01:44:34.249Z,1010.58
2017-07-12T01:44:59.823Z,1010.56
2017-07-12T01:45:25.389Z,1010.53
2017-07-12T01:45:50.966Z,1010.55
2017-07-12T01:46:16.550Z,1010.6
2017-07-12T01:46:42.109Z,1010.61
2017-07-12T01:47:07.664Z,1010.59
2017-07-12T01:47:33.221Z,1010.62
2017-07-12T01:47:58.863Z,1010.61
2017-07-12T01:48:24.450Z,1010.63
2017-07-12T01:48:50.015Z,1010.65
2017-07-12T01:49:15.633Z,1010.64
2017-07-12T01:49:41.265Z,1010.6
2017-07-12T01:50:06.823Z,1010.67
2017-07-12T01:50:32.384Z,1010.64
2017-07-12T01:50:57.965Z,1010.65
2017-07-12T01:51:23.552Z,1010.7
2017-07-12T01:51:49.101Z,1010.74
2017-07-12T01:52:14.672Z,1010.7
2017-07-12T01:52:40.226Z,1010.73
2017-07-12T01:53:05.779Z,1010.77
2017-07-12T01:53:31.350Z,1010.76
2017-07-12T01:53:56.946Z,1010.78
2017-07-12T01:54:22.501Z,1010.78
2017-07-12T01:54:48.057Z,1010.81
2017-07-12T01:55:13.627Z,1010.78
2017-07-12T01:55:39.190Z,1010.86
2017-07-12T01:56:04.753Z,1010.79
2017-07-12T01:56:30.312Z,1010.85
2017-07-12T01:56:55.864Z,1010.83
2017-07-12T01:57:21.459Z,1010.83
2017-07-12T01:57:47.030Z,1010.84
2017-07-12T01:58:12.612Z,1010.85
2017-07-12T01:58:38.227Z,1010.81
2017-07-12T01:59:03.802Z,1010.84
2017-07-12T01:59:29.367Z,1010.86
2017-07-12T01:59:54.945Z,1010.82
2017-07-12T02:00:20.499Z,1010.84
2017-07-12T02:00:46.074Z,1010.84
2017-07-12T02:01:11.647Z,1010.85
2017-07-12T02:01:37.234Z,1010.87
2017-07-12T02:02:02.868Z,1010.78
2017-07-12T02:02:28.516Z,1010.8
2017-07-12T02:02:54.128Z,1010.8
2017-07-12T02:03:19.706Z,1010.8
2017-07-12T02:03:45.263Z,1010.8
2017-07-12T02:04:10.798Z,1010.75
2017-07-12T02:04:36.354Z,1010.76
2017-07-12T02:05:01.964Z,1010.73
2017-07-12T02:05:27.511Z,1010.73
2017-07-12T02:05:53.064Z,1010.75
2017-07-12T02:06:18.711Z,1010.71
2017-07-12T02:06:44.270Z,1010.75
2017-07-12T02:07:09.853Z,1010.76
2017-07-12T02:07:35.427Z,1010.77
2017-07-12T02:08:01.003Z,1010.76
2017-07-12T02:08:26.577Z,1010.75
2017-07-12T02:08:52.139Z,1010.76
2017-07-12T02:09:17.793Z,1010.71
2017-07-12T02:09:43.354Z,1010.72
2017-07-12T02:10:08.930Z,1010.69
2017-07-12T02:10:34.491Z,1010.69
2017-07-12T02:11:00.058Z,1010.67
2017-07-12T02:11:25.630Z,1010.69
2017-07-12T02:11:51.184Z,1010.72
2017-07-12T02:12:16.740Z,1010.69
2017-07-12T02:12:42.295Z,1010.69
2017-07-12T02:13:07.935Z,1010.71
2017-07-12T02:13:33.507Z,1010.72
2017-07-12T02:13:59.077Z,1010.7
2017-07-12T02:14:24.647Z,1010.66
2017-07-12T02:14:50.208Z,1010.69
2017-07-12T02:15:15.791Z,1010.7
2017-07-12T02:15:41.431Z,1010.64
2017-07-12T02:16:06.998Z,1010.67
2017-07-12T02:16:32.560Z,1010.68
2017-07-12T02:16:58.206Z,1010.69
2017-07-12T02:17:23.772Z,1010.69
2017-07-12T02:17:49.359Z,1010.68
2017-07-12T02:18:14.911Z,1010.69
2017-07-12T02:18:40.457Z,1010.67
2017-07-12T02:19:06.061Z,1010.66
2017-07-12T02:19:31.634Z,1010.63
2017-07-12T02:19:57.189Z,1010.66
2017-07-12T02:20:22.762Z,1010.68
2017-07-12T02:20:48.332Z,1010.63
2017-07-12T02:21:13.877Z,1010.67
2017-07-12T02:21:39.464Z,1010.66
2017-07-12T02:22:05.112Z,1010.65
2017-07-12T02:22:30.661Z,1010.63
2017-07-12T02:22:56.214Z,1010.64
2017-07-12T02:23:21.763Z,1010.65
2017-07-12T02:23:47.331Z,1010.65
2017-07-12T02:24:12.902Z,1010.62
2017-07-12T02:24:38.461Z,1010.62
2017-07-12T02:25:04.018Z,1010.61
2017-07-12T02:25:29.686Z,1010.64
2017-07-12T02:25:55.241Z,1010.6
2017-07-12T02:26:20.810Z,1010.56
2017-07-12T02:26:46.399Z,1010.59
2017-07-12T02:27:11.965Z,1010.58
2017-07-12T02:27:37.653Z,1010.59
2017-07-12T02:28:03.209Z,1010.55
2017-07-12T02:28:28.772Z,1010.57
2017-07-12T02:28:54.411Z,1010.58
2017-07-12T02:29:19.973Z,1010.58
2017-07-12T02:29:45.530Z,1010.57
2017-07-12T02:30:11.135Z,1010.55
2017-07-12T02:30:36.703Z,1010.54
2017-07-12T02:31:02.271Z,1010.54
2017-07-12T02:31:27.872Z,1010.52
2017-07-12T02:31:53.455Z,1010.51
2017-07-12T02:32:19.031Z,1010.49
2017-07-12T02:32:44.606Z,1010.5
2017-07-12T02:33:10.207Z,1010.5
2017-07-12T02:33:35.763Z,1010.52
2017-07-12T02:34:01.354Z,1010.54
2017-07-12T02:34:26.936Z,1010.49
2017-07-12T02:34:52.493Z,1010.48
2017-07-12T02:35:18.061Z,1010.51
2017-07-12T02:35:43.631Z,1010.48
2017-07-12T02:36:09.211Z,1010.5
2017-07-12T02:36:34.764Z,1010.44
2017-07-12T02:37:00.329Z,1010.47
2017-07-12T02:37:25.898Z,1010.47
2017-07-12T02:37:51.455Z,1010.45
2017-07-12T02:38:17.012Z,1010.46
2017-07-12T02:38:42.570Z,1010.45
2017-07-12T02:39:08.142Z,1010.45
2017-07-12T02:39:33.724Z,1010.41
2017-07-12T02:39:59.291Z,1010.43
2017-07-12T02:40:24.887Z,1010.43
2017-07-12T02:40:50.433Z,1010.46
2017-07-12T02:41:15.999Z,1010.41
2017-07-12T02:41:41.542Z,1010.42
2017-07-12T02:42:07.097Z,1010.41
2017-07-12T02:42:32.718Z,1010.41
2017-07-12T02:42:58.317Z,1010.46
2017-07-12T02:43:23.893Z,1010.44
2017-07-12T02:43:49.450Z,1010.45
2017-07-12T02:44:15.013Z,1010.45
2017-07-12T02:44:40.577Z,1010.43
2017-07-12T02:45:06.147Z,1010.42
2017-07-12T02:45:31.780Z,1010.43
2017-07-12T02:45:57.362Z,1010.4
2017-07-12T02:46:22.923Z,1010.4
2017-07-12T02:46:48.596Z,1010.45
2017-07-12T02:47:14.157Z,1010.45
2017-07-12T02:47:39.726Z,1010.46
2017-07-12T02:48:05.328Z,1010.45
2017-07-12T02:48:30.955Z,1010.43
2017-07-12T02:48:56.505Z,1010.42
2017-07-12T02:49:22.062Z,1010.46
2017-07-12T02:49:47.625Z,1010.47
2017-07-12T02:50:13.191Z,1010.47
2017-07-12T02:50:38.736Z,1010.44
2017-07-12T02:51:04.433Z,1010.48
2017-07-12T02:51:29.996Z,1010.47
2017-07-12T02:51:55.559Z,1010.47
2017-07-12T02:52:21.115Z,1010.45
2017-07-12T02:52:46.682Z,1010.44
2017-07-12T02:53:12.249Z,1010.45
2017-07-12T02:53:37.831Z,1010.46
2017-07-12T02:54:03.422Z,1010.47
2017-07-12T02:54:28.975Z,1010.44
2017-07-12T02:54:54.599Z,1010.43
2017-07-12T02:55:20.177Z,1010.43
2017-07-12T02:55:45.727Z,1010.41
2017-07-12T02:56:11.363Z,1010.44
2017-07-12T02:56:36.915Z,1010.43
2017-07-12T02:57:02.494Z,1010.41
2017-07-12T02:57:28.042Z,1010.4
2017-07-12T02:57:53.614Z,1010.38
2017-07-12T02:58:19.233Z,1010.38
2017-07-12T02:58:44.822Z,1010.36
2017-07-12T02:59:10.390Z,1010.34
2017-07-12T02:59:35.938Z,1010.35
2017-07-12T03:00:01.485Z,1010.35
2017-07-12T03:00:27.042Z,1010.33
2017-07-12T03:00:52.608Z,1010.33
2017-07-12T03:01:18.170Z,1010.35
2017-07-12T03:01:43.724Z,1010.35
2017-07-12T03:02:09.286Z,1010.28
2017-07-12T03:02:34.866Z,1010.33
2017-07-12T03:03:00.477Z,1010.33
2017-07-12T03:03:26.037Z,1010.32
2017-07-12T03:03:51.613Z,1010.34
2017-07-12T03:04:17.274Z,1010.35
2017-07-12T03:04:42.861Z,1010.31
2017-07-12T03:05:08.393Z,1010.29
2017-07-12T03:05:33.965Z,1010.3
2017-07-12T03:05:59.515Z,1010.3
2017-07-12T03:06:25.186Z,1010.29
2017-07-12T03:06:50.841Z,1010.26
2017-07-12T03:07:16.397Z,1010.24
2017-07-12T03:07:41.969Z,1010.25
2017-07-12T03:08:07.552Z,1010.28
2017-07-12T03:08:33.085Z,1010.29
2017-07-12T03:08:58.650Z,1010.25
2017-07-12T03:09:24.228Z,1010.28
2017-07-12T03:09:49.771Z,1010.26
2017-07-12T03:10:15.387Z,1010.29
2017-07-12T03:10:40.898Z,1010.25
2017-07-12T03:11:06.465Z,1010.28
2017-07-12T03:11:32.038Z,1010.28
2017-07-12T03:11:57.745Z,1010.3
2017-07-12T03:12:23.311Z,1010.27
2017-07-12T03:12:48.853Z,1010.28
2017-07-12T03:13:14.420Z,1010.29
2017-07-12T03:13:40.082Z,1010.26
2017-07-12T03:14:05.634Z,1010.24
2017-07-12T03:14:31.224Z,1010.26
2017-07-12T03:14:56.811Z,1010.26
2017-07-12T03:15:22.387Z,1010.22
2017-07-12T03:15:47.960Z,1010.26
2017-07-12T03:16:13.522Z,1010.28
2017-07-12T03:16:39.118Z,1010.25
2017-07-12T03:17:04.683Z,1010.28
2017-07-12T03:17:30.258Z,1010.27
2017-07-12T03:17:55.815Z,1010.26
2017-07-12T03:18:21.420Z,1010.26
2017-07-12T03:18:46.989Z,1010.28
2017-07-12T03:19:12.537Z,1010.27
2017-07-12T03:19:38.132Z,1010.26
2017-07-12T03:20:03.715Z,1010.3
2017-07-12T03:20:30.307Z,1010.25
2017-07-12T03:20:56.013Z,1010.28
2017-07-12T03:21:21.614Z,1010.24
2017-07-12T03:21:47.177Z,1010.27
2017-07-12T03:22:12.736Z,1010.28
2017-07-12T03:22:38.304Z,1010.22
2017-07-12T03:23:03.856Z,1010.25
2017-07-12T03:23:29.406Z,1010.23
2017-07-12T03:23:54.966Z,1010.24
2017-07-12T03:24:20.530Z,1010.2
2017-07-12T03:24:46.198Z,1010.21
2017-07-12T03:25:11.839Z,1010.22
2017-07-12T03:25:37.403Z,1010.26
2017-07-12T03:26:02.978Z,1010.22
2017-07-12T03:26:28.541Z,1010.18
2017-07-12T03:26:54.114Z,1010.2
2017-07-12T03:27:19.682Z,1010.22
2017-07-12T03:27:45.239Z,1010.19
2017-07-12T03:28:10.804Z,1010.12
2017-07-12T03:28:36.355Z,1010.18
2017-07-12T03:29:01.956Z,1010.16
2017-07-12T03:29:27.522Z,1010.18
2017-07-12T03:29:53.085Z,1010.19
2017-07-12T03:30:18.641Z,1010.17
2017-07-12T03:30:44.205Z,1010.14
2017-07-12T03:31:09.833Z,1010.1
2017-07-12T03:31:35.436Z,1010.15
2017-07-12T03:32:00.999Z,1010.13
2017-07-12T03:32:26.569Z,1010.12
2017-07-12T03:32:52.248Z,1010.11
2017-07-12T03:33:17.800Z,1010.12
2017-07-12T03:33:43.375Z,1010.12
2017-07-12T03:34:08.981Z,1010.11
2017-07-12T03:34:34.546Z,1010.11
2017-07-12T03:35:00.183Z,1010.15
2017-07-12T03:35:25.759Z,1010.12
2017-07-12T03:35:51.345Z,1010.13
2017-07-12T03:36:16.907Z,1010.15
2017-07-12T03:36:42.462Z,1010.13
2017-07-12T03:37:08.043Z,1010.14
2017-07-12T03:37:33.607Z,1010.09
2017-07-12T03:37:59.176Z,1010.08
2017-07-12T03:38:24.788Z,1010.09
2017-07-12T03:38:50.341Z,1010.11
2017-07-12T03:39:15.908Z,1010.1
2017-07-12T03:39:41.556Z,1010.09
2017-07-12T03:40:07.123Z,1010.07
2017-07-12T03:40:32.694Z,1010.09
2017-07-12T03:40:58.263Z,1010.06
2017-07-12T03:41:23.835Z,1010.11
2017-07-12T03:41:49.377Z,1010.06
2017-07-12T03:42:15.033Z,1010.07
2017-07-12T03:42:40.643Z,1010.05
2017-07-12T03:43:06.196Z,1010.04
2017-07-12T03:43:31.756Z,1010.11
2017-07-12T03:43:57.324Z,1010.09
2017-07-12T03:44:22.888Z,1010.06
2017-07-12T03:44:48.457Z,1010.03
2017-07-12T03:45:14.026Z,1010.04
2017-07-12T03:45:39.598Z,1010.04
2017-07-12T03:46:05.183Z,1010.06
2017-07-12T03:46:30.743Z,1010.05
2017-07-12T03:46:56.323Z,1010.06
2017-07-12T03:47:21.896Z,1010.07
2017-07-12T03:47:47.473Z,1010.07
2017-07-12T03:48:13.045Z,1010.07
2017-07-12T03:48:38.641Z,1010.01
2017-07-12T03:49:04.192Z,1010.06
2017-07-12T03:49:29.773Z,1010.06
2017-07-12T03:49:55.333Z,1010.06
2017-07-12T03:50:20.892Z,1010.06
2017-07-12T03:50:46.444Z,1010.06
2017-07-12T03:51:12.028Z,1010.05
2017-07-12T03:51:37.569Z,1010.02
2017-07-12T03:52:03.123Z,1010.04
2017-07-12T03:52:28.704Z,1010
2017-07-12T03:52:54.282Z,1010.01
2017-07-12T03:53:19.855Z,1010
2017-07-12T03:53:45.456Z,1010
2017-07-12T03:54:11.024Z,1010.03
2017-07-12T03:54:36.566Z,1009.96
2017-07-12T03:55:02.157Z,1009.96
2017-07-12T03:55:27.718Z,1009.93
2017-07-12T03:55:53.302Z,1009.98
2017-07-12T03:56:18.932Z,1009.96
2017-07-12T03:56:44.523Z,1009.94
2017-07-12T03:57:10.088Z,1009.96
2017-07-12T03:57:35.710Z,1009.92
2017-07-12T03:58:01.314Z,1009.93
2017-07-12T03:58:26.886Z,1009.95
2017-07-12T03:58:52.461Z,1009.91
2017-07-12T03:59:18.145Z,1009.92
2017-07-12T03:59:43.721Z,1009.89
2017-07-12T04:00:09.296Z,1009.87
2017-07-12T04:00:34.869Z,1009.91
2017-07-12T04:01:00.424Z,1009.87
2017-07-12T04:01:25.991Z,1009.91
2017-07-12T04:01:51.555Z,1009.9
2017-07-12T04:02:17.124Z,1009.84
2017-07-12T04:02:42.688Z,1009.87
2017-07-12T04:03:08.306Z,1009.87
2017-07-12T04:03:33.862Z,1009.88
2017-07-12T04:03:59.455Z,1009.86
2017-07-12T04:04:25.016Z,1009.85
2017-07-12T04:04:50.581Z,1009.85
2017-07-12T04:05:16.141Z,1009.87
2017-07-12T04:05:41.708Z,1009.83
2017-07-12T04:06:07.266Z,1009.8
2017-07-12T04:06:32.883Z,1009.8
2017-07-12T04:06:58.545Z,1009.83
2017-07-12T04:07:24.114Z,1009.79
2017-07-12T04:07:49.726Z,1009.82
2017-07-12T04:08:15.282Z,1009.8
2017-07-12T04:08:40.973Z,1009.8
2017-07-12T04:09:06.527Z,1009.76
2017-07-12T04:09:32.072Z,1009.76
2017-07-12T04:09:57.655Z,1009.76
2017-07-12T04:10:23.224Z,1009.75
2017-07-12T04:10:48.796Z,1009.72
2017-07-12T04:11:14.356Z,1009.71
2017-07-12T04:11:39.915Z,1009.75
2017-07-12T04:12:05.496Z,1009.72
2017-07-12T04:12:31.064Z,1009.71
2017-07-12T04:12:56.655Z,1009.75
2017-07-12T04:13:22.225Z,1009.76
2017-07-12T04:13:47.772Z,1009.72
2017-07-12T04:14:13.341Z,1009.72
2017-07-12T04:14:38.906Z,1009.71
2017-07-12T04:15:04.475Z,1009.7
2017-07-12T04:15:30.035Z,1009.69
2017-07-12T04:15:55.600Z,1009.68
2017-07-12T04:16:21.157Z,1009.67
2017-07-12T04:16:46.730Z,1009.66
2017-07-12T04:17:12.356Z,1009.65
2017-07-12T04:17:37.941Z,1009.66
2017-07-12T04:18:03.496Z,1009.63
2017-07-12T04:18:29.054Z,1009.65
2017-07-12T04:18:54.694Z,1009.65
2017-07-12T04:19:20.258Z,1009.67
2017-07-12T04:19:45.813Z,1009.62
2017-07-12T04:20:11.423Z,1009.66
2017-07-12T04:20:37.009Z,1009.65
2017-07-12T04:21:02.556Z,1009.63
2017-07-12T04:21:28.130Z,1009.64
2017-07-12T04:21:53.700Z,1009.63
2017-07-12T04:22:19.262Z,1009.61
2017-07-12T04:22:44.853Z,1009.61
2017-07-12T04:23:10.402Z,1009.58
2017-07-12T04:23:35.969Z,1009.59
2017-07-12T04:24:01.534Z,1009.63
2017-07-12T04:24:27.085Z,1009.63
2017-07-12T04:24:52.677Z,1009.63
2017-07-12T04:25:18.313Z,1009.63
2017-07-12T04:25:43.963Z,1009.66
2017-07-12T04:26:09.515Z,1009.66
2017-07-12T04:26:35.077Z,1009.63
2017-07-12T04:27:00.648Z,1009.56
2017-07-12T04:27:26.212Z,1009.6
2017-07-12T04:27:51.764Z,1009.6
2017-07-12T04:28:17.314Z,1009.6
2017-07-12T04:28:42.895Z,1009.58
2017-07-12T04:29:08.477Z,1009.59
2017-07-12T04:29:34.032Z,1009.57
2017-07-12T04:29:59.589Z,1009.56
2017-07-12T04:30:25.156Z,1009.56
2017-07-12T04:30:50.855Z,1009.56
2017-07-12T04:31:16.412Z,1009.58
2017-07-12T04:31:41.974Z,1009.54
2017-07-12T04:32:07.579Z,1009.58
2017-07-12T04:32:33.134Z,1009.51
2017-07-12T04:32:58.730Z,1009.49
2017-07-12T04:33:24.262Z,1009.57
2017-07-12T04:33:49.833Z,1009.55
2017-07-12T04:34:15.413Z,1009.53
2017-07-12T04:34:40.980Z,1009.54
2017-07-12T04:35:06.551Z,1009.52
2017-07-12T04:35:32.152Z,1009.59
2017-07-12T04:35:57.754Z,1009.52
2017-07-12T04:36:23.324Z,1009.54
2017-07-12T04:36:48.867Z,1009.51
2017-07-12T04:37:14.563Z,1009.49
2017-07-12T04:37:40.123Z,1009.55
2017-07-12T04:38:05.672Z,1009.51
2017-07-12T04:38:31.235Z,1009.5
2017-07-12T04:38:56.821Z,1009.48
2017-07-12T04:39:22.412Z,1009.49
2017-07-12T04:39:48.000Z,1009.5
2017-07-12T04:40:13.575Z,1009.48
2017-07-12T04:40:39.138Z,1009.51
2017-07-12T04:41:04.715Z,1009.44
2017-07-12T04:41:30.341Z,1009.44
2017-07-12T04:41:55.896Z,1009.42
2017-07-12T04:42:21.464Z,1009.41
2017-07-12T04:42:47.031Z,1009.39
2017-07-12T04:43:12.592Z,1009.41
2017-07-12T04:43:38.161Z,1009.4
2017-07-12T04:44:03.736Z,1009.4
2017-07-12T04:44:29.321Z,1009.37
2017-07-12T04:45:48.741Z,1009.41
2017-07-12T04:46:14.291Z,1009.33
2017-07-12T04:46:39.882Z,1009.33
2017-07-12T04:47:05.453Z,1009.32
2017-07-12T04:47:31.016Z,1009.36
2017-07-12T04:47:56.594Z,1009.37
2017-07-12T04:48:22.160Z,1009.36
2017-07-12T04:48:47.711Z,1009.3
2017-07-12T04:49:13.384Z,1009.32
2017-07-12T04:49:39.042Z,1009.35
2017-07-12T04:50:04.602Z,1009.29
2017-07-12T04:50:30.169Z,1009.24
2017-07-12T04:50:55.802Z,1009.2
2017-07-12T04:51:21.368Z,1009.26
2017-07-12T04:51:46.931Z,1009.3
2017-07-12T04:52:12.490Z,1009.25
2017-07-12T04:52:38.051Z,1009.23
2017-07-12T04:53:03.637Z,1009.24
2017-07-12T04:53:29.277Z,1009.28
2017-07-12T04:53:54.816Z,1009.28
2017-07-12T04:54:20.364Z,1009.23
2017-07-12T04:54:45.916Z,1009.24
2017-07-12T04:55:11.488Z,1009.22
2017-07-12T04:55:37.052Z,1009.24
2017-07-12T04:56:02.640Z,1009.21
2017-07-12T04:56:28.192Z,1009.19
2017-07-12T04:56:53.756Z,1009.18
2017-07-12T04:57:19.305Z,1009.17
2017-07-12T04:57:44.859Z,1009.18
2017-07-12T04:58:10.500Z,1009.17
2017-07-12T04:58:36.044Z,1009.23
2017-07-12T04:59:01.604Z,1009.14
2017-07-12T04:59:27.222Z,1009.17
2017-07-12T04:59:52.779Z,1009.13
2017-07-12T05:00:18.350Z,1009.14
2017-07-12T05:00:43.928Z,1009.15
2017-07-12T05:01:09.500Z,1009.16
2017-07-12T05:01:35.107Z,1009.2
2017-07-12T05:02:00.653Z,1009.18
2017-07-12T05:02:26.210Z,1009.19
2017-07-12T05:02:51.762Z,1009.16
2017-07-12T05:03:17.335Z,1009.15
2017-07-12T05:03:42.905Z,1009.19
2017-07-12T05:04:08.469Z,1009.18
2017-07-12T05:04:34.036Z,1009.19
2017-07-12T05:04:59.764Z,1009.13
2017-07-12T05:05:25.303Z,1009.15
2017-07-12T05:05:50.852Z,1009.17
2017-07-12T05:06:16.398Z,1009.14
2017-07-12T05:06:41.970Z,1009.16
2017-07-12T05:07:07.536Z,1009.17
2017-07-12T05:07:33.114Z,1009.13
2017-07-12T05:07:58.683Z,1009.17
2017-07-12T05:08:24.262Z,1009.13
2017-07-12T05:08:49.819Z,1009.12
2017-07-12T05:09:15.364Z,1009.18
2017-07-12T05:09:40.927Z,1009.11
2017-07-12T05:10:06.496Z,1009.15
2017-07-12T05:10:32.047Z,1009.13
2017-07-12T05:10:57.757Z,1009.1
2017-07-12T05:11:23.361Z,1009.14